createdAt,value
2023-01-15T07:24:16.580Z,120.00
2023-01-15T07:25:18.605Z,120.00
2023-01-15T07:26:20.623Z,120.00
2023-01-15T07:27:22.625Z,124.00
2023-01-15T07:28:24.646Z,124.00
2023-01-15T07:29:26.658Z,132.00
2023-01-15T07:30:28.751Z,148.00
2023-01-15T07:31:30.744Z,156.00
2023-01-15T07:32:32.732Z,180.00
2023-01-15T07:33:34.740Z,192.00
2023-01-15T07:34:36.763Z,188.00
2023-01-15T07:35:38.766Z,184.00
2023-01-15T07:36:40.788Z,192.00
2023-01-15T07:37:42.822Z,212.00
2023-01-15T07:38:44.860Z,252.00
2023-01-15T07:39:46.871Z,300.00
2023-01-15T07:40:48.886Z,340.00
2023-01-15T07:41:50.916Z,364.00
2023-01-15T07:42:52.936Z,372.00
2023-01-15T07:43:54.950Z,376.00
2023-01-15T07:44:56.954Z,384.00
2023-01-15T07:45:58.999Z,400.00
2023-01-15T07:47:00.978Z,444.00
2023-01-15T07:48:02.990Z,492.00
2023-01-15T07:49:05.011Z,516.00
2023-01-15T07:50:07.016Z,544.00
2023-01-15T07:51:09.030Z,588.00
2023-01-15T07:52:11.043Z,596.00
2023-01-15T07:53:13.057Z,548.00
2023-01-15T07:54:15.117Z,528.00
2023-01-15T07:55:17.126Z,544.00
2023-01-15T07:56:19.161Z,652.00
2023-01-15T07:57:21.192Z,692.00
2023-01-15T07:58:23.196Z,660.00
2023-01-15T07:59:25.230Z,656.00
2023-01-15T08:00:27.340Z,624.00
2023-01-15T08:01:29.493Z,580.00
2023-01-15T08:02:31.561Z,576.00
2023-01-15T08:03:33.597Z,540.00
2023-01-15T08:04:36.331Z,540.00
2023-01-15T08:05:37.233Z,576.00
2023-01-15T08:06:39.285Z,584.00
2023-01-15T08:07:41.271Z,636.00
2023-01-15T08:08:43.283Z,696.00
2023-01-15T08:09:45.292Z,708.00
2023-01-15T08:10:47.320Z,720.00
2023-01-15T08:11:49.306Z,716.00
2023-01-15T08:12:51.340Z,672.00
2023-01-15T08:13:53.348Z,696.00
2023-01-15T08:14:55.391Z,780.00
2023-01-15T08:15:57.441Z,792.00
2023-01-15T08:16:59.456Z,832.00
2023-01-15T08:18:01.482Z,808.00
2023-01-15T08:19:03.506Z,760.00
2023-01-15T08:20:14.992Z,784.00
2023-01-15T08:21:07.094Z,816.00
2023-01-15T08:22:09.093Z,840.00
2023-01-15T08:23:11.114Z,884.00
2023-01-15T08:24:13.103Z,876.00
2023-01-15T08:25:15.134Z,832.00
2023-01-15T08:26:17.150Z,816.00
2023-01-15T08:27:19.149Z,856.00
2023-01-15T08:28:21.131Z,912.00
2023-01-15T08:29:23.164Z,968.00
2023-01-15T08:30:25.187Z,1016.00
2023-01-15T08:31:27.197Z,1040.00
2023-01-15T08:32:29.194Z,1040.00
2023-01-15T08:33:31.195Z,1012.00
2023-01-15T08:34:33.198Z,1004.00
2023-01-15T08:35:35.219Z,1024.00
2023-01-15T08:36:37.244Z,1048.00
2023-01-15T08:37:39.262Z,1096.00
2023-01-15T08:38:41.285Z,1124.00
2023-01-15T08:39:43.305Z,1140.00
2023-01-15T08:40:45.336Z,1148.00
2023-01-15T08:41:47.338Z,1120.00
2023-01-15T08:42:49.344Z,1096.00
2023-01-15T08:43:51.313Z,1076.00
2023-01-15T08:44:53.329Z,1036.00
2023-01-15T08:45:55.354Z,1076.00
2023-01-15T08:46:57.356Z,1156.00
2023-01-15T08:47:59.379Z,1220.00
2023-01-15T08:49:01.389Z,1328.00
2023-01-15T08:50:03.419Z,1472.00
2023-01-15T08:51:05.467Z,1600.00
2023-01-15T08:52:07.459Z,1680.00
2023-01-15T08:53:09.481Z,1748.00
2023-01-15T08:54:11.489Z,1792.00
2023-01-15T08:55:13.505Z,1824.00
2023-01-15T08:56:15.541Z,1848.00
2023-01-15T08:57:17.552Z,1880.00
2023-01-15T08:58:19.579Z,1948.00
2023-01-15T08:59:21.592Z,2032.00
2023-01-15T09:00:23.613Z,2112.00
2023-01-15T09:01:25.734Z,2176.00
2023-01-15T09:02:27.735Z,2252.00
2023-01-15T09:03:29.750Z,2320.00
2023-01-15T09:04:31.797Z,2300.00
2023-01-15T09:05:33.811Z,2252.00
2023-01-15T09:06:35.856Z,2228.00
2023-01-15T09:07:37.945Z,2264.00
2023-01-15T09:08:40.010Z,2356.00
2023-01-15T09:09:42.028Z,2444.00
2023-01-15T09:10:44.034Z,2452.00
2023-01-15T09:11:46.063Z,2488.00
2023-01-15T09:12:47.264Z,2660.00
2023-01-15T09:13:49.277Z,2872.00
2023-01-15T09:14:59.275Z,2996.00
2023-01-15T09:15:52.701Z,3020.00
2023-01-15T09:16:54.778Z,3008.00
2023-01-15T09:17:56.782Z,2932.00
2023-01-15T09:18:58.830Z,2832.00
2023-01-15T09:20:00.826Z,2836.00
2023-01-15T09:21:02.853Z,3008.00
2023-01-15T09:22:04.860Z,3224.00
2023-01-15T09:23:06.881Z,3376.00
2023-01-15T09:24:08.951Z,3412.00
2023-01-15T09:25:10.956Z,3336.00
2023-01-15T09:26:12.998Z,3308.00
2023-01-15T09:27:15.049Z,3360.00
2023-01-15T09:28:17.117Z,3520.00
2023-01-15T09:29:19.120Z,3796.00
2023-01-15T09:30:21.181Z,3980.00
2023-01-15T09:31:23.178Z,4028.00
2023-01-15T09:32:25.221Z,4072.00
2023-01-15T09:33:27.219Z,4060.00
2023-01-15T09:34:29.223Z,4040.00
2023-01-15T09:35:31.268Z,4076.00
2023-01-15T09:36:33.273Z,4148.00
2023-01-15T09:37:35.292Z,4236.00
2023-01-15T09:38:37.322Z,4272.00
2023-01-15T09:39:39.343Z,4236.00
2023-01-15T09:40:41.347Z,4236.00
2023-01-15T09:41:43.366Z,4284.00
2023-01-15T09:42:45.386Z,4332.00
2023-01-15T09:43:50.797Z,4400.00
2023-01-15T09:44:48.833Z,4476.00
2023-01-15T09:45:50.903Z,4560.00
2023-01-15T09:46:52.883Z,4652.00
2023-01-15T09:47:54.876Z,4796.00
2023-01-15T09:48:56.897Z,4912.00
2023-01-15T09:49:58.922Z,4984.00
2023-01-15T09:51:00.924Z,5052.00
2023-01-15T09:52:02.942Z,5068.00
2023-01-15T09:53:04.953Z,5092.00
2023-01-15T09:54:06.964Z,5200.00
2023-01-15T09:55:08.963Z,5364.00
2023-01-15T09:56:10.967Z,5476.00
2023-01-15T09:57:12.989Z,5392.00
2023-01-15T09:58:15.019Z,5228.00
2023-01-15T09:59:17.048Z,5224.00
2023-01-15T10:00:19.052Z,5320.00
2023-01-15T10:01:21.089Z,5392.00
2023-01-15T10:02:23.123Z,5376.00
2023-01-15T10:03:25.196Z,5380.00
2023-01-15T10:04:27.208Z,5448.00
2023-01-15T10:05:29.225Z,5540.00
2023-01-15T10:06:31.239Z,5660.00
2023-01-15T10:07:33.245Z,5816.00
2023-01-15T10:08:35.278Z,5944.00
2023-01-15T10:09:37.293Z,6028.00
2023-01-15T10:10:39.284Z,6168.00
2023-01-15T10:11:41.328Z,6276.00
2023-01-15T10:12:43.332Z,6312.00
2023-01-15T10:13:45.431Z,6320.00
2023-01-15T10:14:47.443Z,6308.00
2023-01-15T10:15:49.485Z,6256.00
2023-01-15T10:16:51.457Z,6220.00
2023-01-15T10:17:53.541Z,6220.00
2023-01-15T10:18:55.614Z,6212.00
2023-01-15T10:19:57.615Z,6296.00
2023-01-15T10:20:59.647Z,6324.00
2023-01-15T10:22:01.622Z,6220.00
2023-01-15T10:23:03.667Z,6040.00
2023-01-15T10:24:05.663Z,5788.00
2023-01-15T10:25:07.687Z,5516.00
2023-01-15T10:26:09.685Z,5396.00
2023-01-15T10:27:11.703Z,5368.00
2023-01-15T10:28:13.903Z,5360.00
2023-01-15T10:29:15.953Z,5428.00
2023-01-15T10:30:17.967Z,5456.00
2023-01-15T10:31:19.988Z,5248.00
2023-01-15T10:32:21.958Z,4892.00
2023-01-15T10:33:23.963Z,4536.00
2023-01-15T10:34:25.982Z,4220.00
2023-01-15T10:35:27.982Z,4008.00
2023-01-15T10:36:29.986Z,3920.00
2023-01-15T10:37:32.006Z,4016.00
2023-01-15T10:38:34.007Z,4212.00
2023-01-15T10:39:36.052Z,4408.00
2023-01-15T10:40:38.046Z,4532.00
2023-01-15T10:41:40.073Z,4528.00
2023-01-15T10:42:42.050Z,4468.00
2023-01-15T10:43:44.032Z,4404.00
2023-01-15T10:44:46.038Z,4388.00
2023-01-15T10:45:48.037Z,4756.00
2023-01-15T10:46:50.047Z,5560.00
2023-01-15T10:47:52.039Z,6148.00
2023-01-15T10:48:54.040Z,6084.00
2023-01-15T10:49:56.066Z,5764.00
2023-01-15T10:50:58.086Z,5620.00
2023-01-15T10:52:00.119Z,5752.00
2023-01-15T10:53:02.102Z,5788.00
2023-01-15T10:54:04.114Z,6116.00
2023-01-15T10:55:06.126Z,6604.00
2023-01-15T10:56:08.138Z,7096.00
2023-01-15T10:57:10.141Z,7872.00
2023-01-15T10:58:12.146Z,8716.00
2023-01-15T10:59:14.168Z,8464.00
2023-01-15T11:00:16.172Z,8896.00
2023-01-15T11:01:18.352Z,8856.00
2023-01-15T11:02:20.494Z,9680.00
2023-01-15T11:03:22.512Z,10900.00
2023-01-15T11:04:24.516Z,11508.00
2023-01-15T11:05:26.548Z,12212.00
2023-01-15T11:06:28.581Z,11616.00
2023-01-15T11:07:30.608Z,11856.00
2023-01-15T11:09:34.218Z,10628.00
2023-01-15T11:10:36.286Z,10108.00
2023-01-15T11:11:38.297Z,9544.00
2023-01-15T11:12:40.309Z,9120.00
2023-01-15T11:13:42.331Z,8952.00
2023-01-15T11:14:44.354Z,10016.00
2023-01-15T11:15:46.390Z,10440.00
2023-01-15T11:16:48.396Z,10020.00
2023-01-15T11:17:50.408Z,10092.00
2023-01-15T11:18:52.412Z,9960.00
2023-01-15T11:19:54.432Z,9420.00
2023-01-15T11:20:56.468Z,9196.00
2023-01-15T11:21:58.492Z,9376.00
2023-01-15T11:23:00.499Z,9108.00
2023-01-15T11:24:02.522Z,8152.00
2023-01-15T11:25:04.540Z,8076.00
2023-01-15T11:26:06.553Z,7996.00
2023-01-15T11:27:08.556Z,7788.00
2023-01-15T11:28:10.585Z,7300.00
2023-01-15T11:29:12.563Z,7408.00
2023-01-15T11:30:14.580Z,8108.00
2023-01-15T11:31:16.698Z,8332.00
2023-01-15T11:32:18.691Z,8296.00
2023-01-15T11:33:20.718Z,8400.00
2023-01-15T11:34:22.708Z,8584.00
2023-01-15T11:35:24.731Z,8476.00
2023-01-15T11:36:26.724Z,7968.00
2023-01-15T11:37:28.761Z,7536.00
2023-01-15T11:38:30.771Z,7316.00
2023-01-15T11:39:32.769Z,7056.00
2023-01-15T11:40:34.797Z,7032.00
2023-01-15T11:41:36.831Z,7184.00
2023-01-15T11:42:38.832Z,7212.00
2023-01-15T11:43:40.858Z,7140.00
2023-01-15T11:44:42.866Z,6992.00
2023-01-15T11:45:44.861Z,6820.00
2023-01-15T11:46:46.893Z,6748.00
2023-01-15T11:47:48.899Z,6804.00
2023-01-15T11:48:50.908Z,6808.00
2023-01-15T11:49:52.933Z,6588.00
2023-01-15T11:50:54.962Z,6216.00
2023-01-15T11:51:56.993Z,5936.00
2023-01-15T11:52:59.002Z,5700.00
2023-01-15T11:54:01.002Z,5412.00
2023-01-15T11:55:03.004Z,5144.00
2023-01-15T11:56:05.040Z,4864.00
2023-01-15T11:57:07.066Z,4636.00
2023-01-15T11:58:09.048Z,4476.00
2023-01-15T11:59:11.068Z,4356.00
2023-01-15T12:00:13.137Z,4408.00
2023-01-15T12:01:15.203Z,4664.00
2023-01-15T12:02:17.235Z,4920.00
2023-01-15T12:03:19.244Z,5036.00
2023-01-15T12:04:21.422Z,5052.00
2023-01-15T12:05:23.391Z,5076.00
2023-01-15T12:06:25.472Z,4996.00
2023-01-15T12:07:27.469Z,4776.00
2023-01-15T12:08:29.547Z,4584.00
2023-01-15T12:09:31.555Z,4488.00
2023-01-15T12:10:33.571Z,4516.00
2023-01-15T12:11:35.624Z,4568.00
2023-01-15T12:12:37.638Z,4600.00
2023-01-15T12:13:39.645Z,4604.00
2023-01-15T12:14:41.651Z,4492.00
2023-01-15T12:15:43.662Z,4300.00
2023-01-15T12:16:45.658Z,4108.00
2023-01-15T12:17:47.682Z,3968.00
2023-01-15T12:18:49.680Z,3964.00
2023-01-15T12:19:51.647Z,3996.00
2023-01-15T12:20:53.670Z,4056.00
2023-01-15T12:21:55.666Z,4216.00
2023-01-15T12:22:57.713Z,4396.00
2023-01-15T12:23:59.735Z,4516.00
2023-01-15T12:25:01.738Z,4624.00
2023-01-15T12:26:03.761Z,4840.00
2023-01-15T12:27:07.268Z,5092.00
2023-01-15T12:28:07.108Z,5316.00
2023-01-15T12:29:09.129Z,5548.00
2023-01-15T12:30:11.262Z,5716.00
2023-01-15T12:31:13.301Z,5820.00
2023-01-15T12:32:15.960Z,5816.00
2023-01-15T12:33:16.893Z,5740.00
2023-01-15T12:34:18.914Z,6064.00
2023-01-15T12:35:20.923Z,6516.00
2023-01-15T12:36:22.926Z,6692.00
2023-01-15T12:37:24.935Z,6752.00
2023-01-15T12:38:26.952Z,6668.00
2023-01-15T12:39:28.954Z,6492.00
2023-01-15T12:40:30.974Z,6280.00
2023-01-15T12:41:32.988Z,6012.00
2023-01-15T12:42:34.978Z,5660.00
2023-01-15T12:43:37.043Z,5116.00
2023-01-15T12:44:39.058Z,4548.00
2023-01-15T12:45:41.081Z,4188.00
2023-01-15T12:46:43.208Z,3976.00
2023-01-15T12:47:45.234Z,3944.00
2023-01-15T12:48:47.352Z,3972.00
2023-01-15T12:49:49.377Z,3796.00
2023-01-15T12:50:52.337Z,3448.00
2023-01-15T12:51:53.265Z,3256.00
2023-01-15T12:52:55.309Z,3388.00
2023-01-15T12:53:57.318Z,3728.00
2023-01-15T12:54:59.328Z,3800.00
2023-01-15T12:56:01.348Z,3400.00
2023-01-15T12:57:03.378Z,3008.00
2023-01-15T12:58:05.360Z,2864.00
2023-01-15T12:59:07.373Z,2800.00
2023-01-15T13:00:09.417Z,2624.00
2023-01-15T13:01:11.569Z,2416.00
2023-01-15T13:02:13.627Z,2368.00
2023-01-15T13:03:15.624Z,2648.00
2023-01-15T13:04:17.642Z,3408.00
2023-01-15T13:05:19.620Z,3880.00
2023-01-15T13:06:21.639Z,3852.00
2023-01-15T13:07:23.651Z,3920.00
2023-01-15T13:08:25.656Z,3576.00
2023-01-15T13:09:27.676Z,2816.00
2023-01-15T13:10:29.687Z,2492.00
2023-01-15T13:11:31.694Z,2656.00
2023-01-15T13:12:33.718Z,2772.00
2023-01-15T13:13:35.730Z,2916.00
2023-01-15T13:14:37.745Z,2836.00
2023-01-15T13:15:39.768Z,2520.00
2023-01-15T13:16:41.787Z,2296.00
2023-01-15T13:17:43.771Z,2332.00
2023-01-15T13:18:45.781Z,2516.00
2023-01-15T13:19:47.811Z,2636.00
2023-01-15T13:20:49.817Z,2580.00
2023-01-15T13:21:51.846Z,2384.00
2023-01-15T13:22:53.861Z,2104.00
2023-01-15T13:23:55.865Z,1940.00
2023-01-15T13:24:57.903Z,2036.00
2023-01-15T13:25:59.900Z,2480.00
2023-01-15T13:27:11.184Z,2740.00
2023-01-15T13:28:03.298Z,2720.00
2023-01-15T13:29:05.303Z,2672.00
2023-01-15T13:30:07.342Z,2908.00
2023-01-15T13:31:09.368Z,3864.00
2023-01-15T13:32:11.363Z,4848.00
2023-01-15T13:33:13.363Z,5004.00
2023-01-15T13:34:15.367Z,4128.00
2023-01-15T13:35:17.405Z,3092.00
2023-01-15T13:36:19.460Z,2388.00
2023-01-15T13:37:21.480Z,2028.00
2023-01-15T13:38:23.543Z,2088.00
2023-01-15T13:39:25.583Z,2212.00
2023-01-15T13:40:27.583Z,2216.00
2023-01-15T13:41:29.582Z,2184.00
2023-01-15T13:42:31.586Z,2212.00
2023-01-15T13:43:33.605Z,2816.00
2023-01-15T13:44:35.628Z,3404.00
2023-01-15T13:45:37.761Z,3320.00
2023-01-15T13:46:39.766Z,3512.00
2023-01-15T13:47:41.766Z,4088.00
2023-01-15T13:48:45.405Z,3808.00
2023-01-15T13:49:45.439Z,2888.00
2023-01-15T13:50:47.458Z,2564.00
2023-01-15T13:51:49.459Z,3708.00
2023-01-15T13:52:51.483Z,4188.00
2023-01-15T13:53:53.509Z,3316.00
2023-01-15T13:54:55.662Z,2620.00
2023-01-15T13:55:57.692Z,2596.00
2023-01-15T13:56:59.718Z,3108.00
2023-01-15T13:58:01.731Z,4236.00
2023-01-15T13:59:03.737Z,4364.00
2023-01-15T14:00:05.767Z,3500.00
2023-01-15T14:01:09.068Z,2868.00
2023-01-15T14:02:09.113Z,2240.00
2023-01-15T14:03:11.161Z,2564.00
2023-01-15T14:04:13.173Z,2824.00
2023-01-15T14:05:15.191Z,2672.00
2023-01-15T14:06:17.219Z,2536.00
2023-01-15T14:07:19.232Z,2428.00
2023-01-15T14:08:21.207Z,2928.00
2023-01-15T14:09:23.207Z,3312.00
2023-01-15T14:10:25.222Z,2388.00
2023-01-15T14:11:27.256Z,1796.00
2023-01-15T14:12:29.262Z,1776.00
2023-01-15T14:13:31.262Z,1916.00
2023-01-15T14:14:33.286Z,2436.00
2023-01-15T14:15:38.023Z,3196.00
2023-01-15T14:16:36.846Z,2688.00
2023-01-15T14:17:38.836Z,2056.00
2023-01-15T14:18:40.820Z,2224.00
2023-01-15T14:19:42.831Z,2436.00
2023-01-15T14:20:44.832Z,2632.00
2023-01-15T14:21:46.852Z,2720.00
2023-01-15T14:22:48.878Z,2160.00
2023-01-15T14:23:50.901Z,1832.00
2023-01-15T14:24:52.912Z,2440.00
2023-01-15T14:25:54.924Z,2588.00
2023-01-15T14:26:56.935Z,2344.00
2023-01-15T14:27:58.929Z,1844.00
2023-01-15T14:29:00.956Z,1872.00
2023-01-15T14:30:02.984Z,2408.00
2023-01-15T14:31:04.997Z,2332.00
2023-01-15T14:32:07.041Z,1828.00
2023-01-15T14:33:09.026Z,1752.00
2023-01-15T14:34:11.057Z,2012.00
2023-01-15T14:35:13.062Z,2108.00
2023-01-15T14:36:15.054Z,1792.00
2023-01-15T14:37:17.096Z,1504.00
2023-01-15T14:38:19.103Z,1400.00
2023-01-15T14:39:21.124Z,1304.00
2023-01-15T14:40:23.154Z,1332.00
2023-01-15T14:41:25.153Z,1632.00
2023-01-15T14:42:27.183Z,1540.00
2023-01-15T14:43:29.203Z,1572.00
2023-01-15T14:44:31.203Z,1412.00
2023-01-15T14:45:33.330Z,1392.00
2023-01-15T14:46:35.336Z,1304.00
2023-01-15T14:47:37.404Z,1160.00
2023-01-15T14:48:39.412Z,1148.00
2023-01-15T14:49:41.403Z,1048.00
2023-01-15T14:50:43.403Z,988.00
2023-01-15T14:51:45.400Z,940.00
2023-01-15T14:52:47.401Z,912.00
2023-01-15T14:53:49.426Z,868.00
2023-01-15T14:54:51.431Z,868.00
2023-01-15T14:55:53.431Z,820.00
2023-01-15T14:56:55.467Z,792.00
2023-01-15T14:57:57.480Z,800.00
2023-01-15T14:58:59.497Z,756.00
2023-01-15T15:00:01.501Z,724.00
2023-01-15T15:01:03.672Z,696.00
2023-01-15T15:02:04.862Z,684.00
2023-01-15T15:03:05.881Z,664.00
2023-01-15T15:04:07.865Z,656.00
2023-01-15T15:05:09.868Z,636.00
2023-01-15T15:06:11.871Z,604.00
2023-01-15T15:07:13.922Z,580.00
2023-01-15T15:08:15.952Z,560.00
2023-01-15T15:09:17.946Z,540.00
2023-01-15T15:10:19.979Z,512.00
2023-01-15T15:11:21.972Z,492.00
2023-01-15T15:12:23.979Z,472.00
2023-01-15T15:13:26.015Z,452.00
2023-01-15T15:14:28.020Z,432.00
2023-01-15T15:15:30.056Z,408.00
2023-01-15T15:16:32.113Z,392.00
2023-01-15T15:17:34.107Z,372.00
2023-01-15T15:18:36.127Z,356.00
2023-01-15T15:19:38.132Z,336.00
2023-01-15T15:20:40.174Z,316.00
2023-01-15T15:21:42.198Z,300.00
2023-01-15T15:22:44.203Z,284.00
2023-01-15T15:23:46.231Z,264.00
2023-01-15T15:24:48.242Z,244.00
2023-01-15T15:25:50.251Z,232.00
2023-01-15T15:26:52.291Z,216.00
2023-01-15T15:27:54.269Z,200.00
2023-01-15T15:28:56.283Z,184.00
2023-01-15T15:29:58.305Z,168.00
2023-01-15T15:31:00.361Z,156.00
2023-01-15T15:32:02.368Z,144.00
2023-01-15T15:33:04.376Z,132.00
2023-01-15T15:34:06.359Z,120.00
2023-01-15T15:35:08.386Z,108.00
